Monday, April 24, 2017, 10:39 PM EDT

KRDG, Reading Regional Airport

Location: Reading, PA, United States Lat: 40.367
Local Time: 10:39 PM EDT ( 2:39 GMT) Lon: -75.967
Time Zone: US/Eastern Elev: 344 ft

Show me the last for .
Show Decoded

2017-04-24 21:54 METAR KRDG 250154Z AUTO VRB03KT 10SM OVC055 13/06 A3008 RMK AO2 SLP190 T01280061
                 =
2017-04-24 20:54 METAR KRDG 250054Z AUTO 06004KT 10SM OVC060 13/04 A3008 RMK AO2 RAB03E14 SLP190
                 P0000 T01330044 =
2017-04-24 19:54 METAR KRDG 242354Z AUTO 07005KT 10SM OVC060 13/05 A3007 RMK AO2 SLP188 60004
                 T01330050 10156 20128 56005 =
2017-04-24 18:54 METAR KRDG 242254Z AUTO 07006KT 10SM OVC065 13/06 A3007 =
2017-04-24 17:54 METAR KRDG 242154Z AUTO 07007KT 10SM -RA BKN065 OVC075 13/08 A3008 RMK AO2 RAB00
                 SLP191 P0001 T01280078 =
2017-04-24 16:54 METAR KRDG 242054Z 07005KT 10SM BKN070 OVC090 14/07 A3009 RMK AO2 RAB02E13
                 SLP194 P0000 60003 T01390072 58005 =
2017-04-24 15:54 METAR KRDG 241954Z 07006KT 10SM OVC075 13/07 A3010 RMK AO2 RAE33 SLP197 P0002
                 T01330072 =
2017-04-24 14:54 METAR KRDG 241854Z 10005KT 10SM -RA OVC085 14/08 A3010 RMK AO2 SLP198 P0001
                 T01440078 =
2017-04-24 13:54 METAR KRDG 241754Z VRB04KT 10SM -RA OVC085 16/08 A3010 RMK AO2 RAB46 SLP199
                 P0000 60000 T01560078 10161 20094 56012 =
2017-04-24 12:54 METAR KRDG 241654Z 11006KT 10SM FEW080 OVC095 15/08 A3011 =
2017-04-24 11:54 METAR KRDG 241554Z VRB03KT 10SM -RA OVC095 14/09 A3012 RMK AO2 SLP206 P0000
                 T01390089 =
2017-04-24 10:54 METAR KRDG 241454Z 02004KT 10SM -RA FEW049 BKN075 OVC090 13/09 A3014 RMK AO2
                 RAB35 SLP210 P0000 60000 T01330089 51004 =
2017-04-24 09:54 METAR KRDG 241354Z 01004KT 10SM OVC100 12/09 A3014 RMK AO2 SLP210 T01170094 =
2017-04-24 08:54 METAR KRDG 241254Z 34003KT 10SM SCT110 11/09 A3014 RMK AO2 SLP210 T01060089 =
2017-04-24 07:54 METAR KRDG 241154Z 00000KT 10SM BKN120 09/08 A3012 RMK AO2 SLP206 T00940083
                 10100 20078 51010 =
2017-04-24 06:54 METAR KRDG 241054Z 35004KT 10SM FEW120 09/08 A3012 RMK AO2 SLP204 T00890083 =
2017-04-24 05:54 METAR KRDG 240954Z AUTO 00000KT 10SM BKN110 09/08 A3010 RMK AO2 SLP199 T00890078
                 =
2017-04-24 04:54 METAR KRDG 240854Z AUTO 00000KT 10SM CLR 09/08 A3009 RMK AO2 SLP195 T00890078
                 53004 =
2017-04-24 03:54 METAR KRDG 240754Z AUTO 00000KT 10SM CLR 08/07 A3008 RMK AO2 SLP191 T00830072 =
2017-04-24 02:54 METAR KRDG 240654Z AUTO 00000KT 10SM CLR 09/08 A3008 RMK AO2 SLP191 T00890078 =
2017-04-24 01:54 METAR KRDG 240554Z AUTO 00000KT 10SM CLR 09/07 A3008 RMK AO2 SLP192 T00940072
                 10161 20083 58006 =
2017-04-24 00:54 METAR KRDG 240454Z AUTO 17003KT 10SM CLR 11/07 A3010 RMK AO2 SLP197 T01060067
                 402000044 =
2017-04-23 23:54 METAR KRDG 240354Z AUTO 16004KT 10SM CLR 12/07 A3010 RMK AO2 SLP197 T01220067 =
2017-04-23 22:54 METAR KRDG 240254Z AUTO 17003KT 10SM CLR 13/07 A3010 RMK AO2 SLP199 T01280067
                 51014 =

Support USWX by starting your Amazon purchase here.